Seaway II — ZMR3466 — position and weather

sailwx.info

Track history (hours):
 
Tides and Currents Weather Stations Pressure Air Temp Water Temp Dewpoint Dewpoint Depression Visibility Wind Speed Wind Dir Waves Ship Positions

Seaway II

Last reported at 2015-Jan-29 19:28 UTC. Time now 2015-Jan-29 20:31 UTC.
Position S 36°50' E 174°56'.

Length 37 m.

Type: Passenger vessel. MMSI: 512001026.

Date/timePositionNaut miles runAvg speedWind from/ knotsBaromVisibWave heightAir tempDewpointWater temp
2015-Jan-29 19:28S 36°50' E 174°56'2 2.3
2015-Jan-29 18:28S 36°51' E 174°54'3 1.7
2015-Jan-29 16:32S 36°50' E 174°57'4 3.7
2015-Jan-29 15:28S 36°53' E 174°54'0 0.0
2015-Jan-29 12:10S 36°53' E 174°54'2 0.2
2015-Jan-29 05:33S 36°51' E 174°54'3 3.3
2015-Jan-29 04:33S 36°50' E 174°57'4 3.8
2015-Jan-29 03:32S 36°53' E 174°54'0 0.0
2015-Jan-29 02:32S 36°53' E 174°54'0 0.1
2015-Jan-29 01:25S 36°53' E 174°54'0 0.1
2015-Jan-29 00:22S 36°53' E 174°54'0 0.0
2015-Jan-28 23:16S 36°53' E 174°54'0 0.0
2015-Jan-28 22:24S 36°53' E 174°54'0 0.0
2015-Jan-28 20:31S 36°53' E 174°54'2 1.8
2015-Jan-28 19:33S 36°51' E 174°53'3 3.3
2015-Jan-28 18:32S 36°50' E 174°57'1 1.1
2015-Jan-28 17:27S 36°50' E 174°56'2 2.0
2015-Jan-28 16:33S 36°50' E 174°58'5 3.9
2015-Jan-28 15:23S 36°53' E 174°54'0 0.1
2015-Jan-28 14:32S 36°53' E 174°54'0 0.0
2015-Jan-28 13:32S 36°53' E 174°54'0 0.0
2015-Jan-28 12:29S 36°53' E 174°54'0 0.1
2015-Jan-28 11:32S 36°53' E 174°54'0 0.0
2015-Jan-28 10:23S 36°53' E 174°54'0 0.0
2015-Jan-28 09:29S 36°53' E 174°54'0 0.0
2015-Jan-28 08:29S 36°53' E 174°54'0 0.0
2015-Jan-28 07:28S 36°53' E 174°54'0 0.0
2015-Jan-28 06:22S 36°53' E 174°54'2 2.1
2015-Jan-28 05:33S 36°51' E 174°53'5 4.6
2015-Jan-28 04:33S 36°50' E 174°59'5 4.5
2015-Jan-28 03:24S 36°53' E 174°54'1011.0
2015-Jan-28 02:32S 36°44' E 174°57'1 1.0
2015-Jan-28 01:33S 36°44' E 174°56'1 0.9
2015-Jan-28 00:33S 36°44' E 174°57'9 7.4
2015-Jan-27 23:18S 36°53' E 174°54'0 0.1
2015-Jan-27 22:31S 36°53' E 174°54'0 0.0
2015-Jan-27 21:31S 36°53' E 174°54'0 0.0
2015-Jan-27 20:31S 36°53' E 174°54'4 3.2
2015-Jan-27 19:23S 36°50' E 174°56'1 1.0
2015-Jan-27 18:32S 36°50' E 174°56'1 0.5
2015-Jan-27 17:25S 36°50' E 174°56'2 2.1
2015-Jan-27 16:33S 36°50' E 174°58'4 3.9
2015-Jan-27 15:33S 36°51' E 174°54'4 0.4
2015-Jan-27 06:32S 36°50' E 174°49'4 3.7
2015-Jan-27 05:33S 36°51' E 174°54'4 4.5
2015-Jan-27 04:33S 36°50' E 174°59'5 0.8
2015-Jan-26 22:23S 36°53' E 174°54'4 0.6
2015-Jan-26 16:30S 36°50' E 174°57'3 0.3
2015-Jan-26 06:23S 36°52' E 174°54'3 1.0
2015-Jan-26 03:29S 36°49' E 174°52'1 0.2
2015-Jan-26 00:30S 36°49' E 174°53'1 0.9
2015-Jan-25 23:07S 36°49' E 174°52'7 4.4
2015-Jan-25 21:27S 36°49' E 175°01'7 0.5
2015-Jan-25 05:07S 36°49' E 174°51'1 0.7
2015-Jan-25 03:31S 36°49' E 174°53'6 6.2
2015-Jan-25 02:33S 36°50' E 174°46'5 2.5
2015-Jan-25 00:28S 36°49' E 174°52'5 1.5
2015-Jan-24 21:27S 36°50' E 174°58'4 0.2
2015-Jan-24 03:27S 36°49' E 174°52'0 0.1
2015-Jan-24 00:29S 36°49' E 174°52'4 1.2
2015-Jan-23 21:13S 36°50' E 174°57'1 0.1
2015-Jan-23 07:19S 36°50' E 174°58'4 1.6
2015-Jan-23 04:33S 36°50' E 174°53'2 1.2
2015-Jan-23 02:33S 36°50' E 174°56'2 1.9
2015-Jan-23 01:33S 36°51' E 174°54'3 3.2
2015-Jan-23 00:33S 36°50' E 174°57'1 0.6
2015-Jan-22 22:33S 36°50' E 174°59'5 3.5
2015-Jan-22 21:05S 36°53' E 174°54'3 1.1
2015-Jan-22 18:32S 36°50' E 174°56'1 0.7
2015-Jan-22 16:32S 36°50' E 174°55'3 3.3
2015-Jan-22 15:31S 36°53' E 174°54'0 0.0
2015-Jan-22 14:20S 36°53' E 174°54'0 0.0
2015-Jan-22 13:23S 36°53' E 174°54'0 0.0
2015-Jan-22 11:13S 36°53' E 174°54'0 0.1
2015-Jan-22 10:31S 36°53' E 174°54'0 0.0
2015-Jan-22 09:14S 36°53' E 174°54'0 0.0
2015-Jan-22 08:32S 36°53' E 174°54'0 0.0
2015-Jan-22 07:31S 36°53' E 174°54'0 0.0
2015-Jan-22 06:31S 36°53' E 174°54'1 1.4
2015-Jan-22 05:33S 36°51' E 174°54'3 3.3
2015-Jan-22 04:33S 36°50' E 174°57'4 3.2
2015-Jan-22 03:19S 36°53' E 174°54'1 1.0
2015-Jan-22 02:33S 36°52' E 174°54'2 0.7
2015-Jan-22 00:10S 36°51' E 174°53'1 1.1
2015-Jan-21 23:33S 36°51' E 174°53'7 8.2
2015-Jan-21 22:44S 36°49' E 175°01'314.1
2015-Jan-21 22:32S 36°50' E 174°58'4 3.9
2015-Jan-21 21:23S 36°53' E 174°54'0 0.0
2015-Jan-21 20:32S 36°53' E 174°54'4 4.1
2015-Jan-21 19:32S 36°50' E 174°57'3 3.1
2015-Jan-21 18:33S 36°51' E 174°54'2 1.5
2015-Jan-21 17:31S 36°50' E 174°55'2 1.7
2015-Jan-21 16:33S 36°50' E 174°57'4 4.1
2015-Jan-21 15:33S 36°50' E 174°52'2 0.2
2015-Jan-21 06:20S 36°50' E 174°50'5 5.3
2015-Jan-21 05:22S 36°50' E 174°56'1 1.2
2015-Jan-21 04:33S 36°50' E 174°57'4 4.0
2015-Jan-21 03:32S 36°53' E 174°54'4 0.7
2015-Jan-20 22:28S 36°50' E 174°57'3 1.0
2015-Jan-20 19:33S 36°51' E 174°54'2 1.9
2015-Jan-20 18:31S 36°50' E 174°56'0 0.3
2015-Jan-20 17:29S 36°50' E 174°55'1 1.4
2015-Jan-20 16:29S 36°50' E 174°57'3 2.9
2015-Jan-20 15:24S 36°52' E 174°54'1 0.1
2015-Jan-20 05:33S 36°51' E 174°54'3 3.0
2015-Jan-20 04:33S 36°50' E 174°57'0 0.1
2015-Jan-20 02:32S 36°50' E 174°57'4 3.6
2015-Jan-20 01:33S 36°53' E 174°54'0 0.0
2015-Jan-20 00:28S 36°53' E 174°54'3 3.0
2015-Jan-19 23:27S 36°50' E 174°55'3 3.2
2015-Jan-19 22:34S 36°50' E 174°59'5 3.4
2015-Jan-19 21:04S 36°53' E 174°54'0 0.0
2015-Jan-19 20:13S 36°53' E 174°54'2 2.6
2015-Jan-19 19:33S 36°51' E 174°54'  
Track history (hours):
 
Tides and Currents Weather Stations Pressure Air Temp Water Temp Dewpoint Dewpoint Depression Visibility Wind Speed Wind Dir Waves Ship Positions

Seaway II

Last reported at 2015-Jan-29 19:28 UTC. Time now 2015-Jan-29 20:31 UTC.
Position S 36°50' E 174°56'.

Length 37 m.

Type: Passenger vessel. MMSI: 512001026.

Date/timePositionNaut miles runAvg speedWind from/ knotsBaromVisibWave heightAir tempDewpointWater temp
2015-Jan-29 19:28S 36°50' E 174°56'2 2.3
2015-Jan-29 18:28S 36°51' E 174°54'3 1.7
2015-Jan-29 16:32S 36°50' E 174°57'4 3.7
2015-Jan-29 15:28S 36°53' E 174°54'0 0.0
2015-Jan-29 12:10S 36°53' E 174°54'2 0.2
2015-Jan-29 05:33S 36°51' E 174°54'3 3.3
2015-Jan-29 04:33S 36°50' E 174°57'4 3.8
2015-Jan-29 03:32S 36°53' E 174°54'0 0.0
2015-Jan-29 02:32S 36°53' E 174°54'0 0.1
2015-Jan-29 01:25S 36°53' E 174°54'0 0.1
2015-Jan-29 00:22S 36°53' E 174°54'0 0.0
2015-Jan-28 23:16S 36°53' E 174°54'0 0.0
2015-Jan-28 22:24S 36°53' E 174°54'0 0.0
2015-Jan-28 20:31S 36°53' E 174°54'2 1.8
2015-Jan-28 19:33S 36°51' E 174°53'3 3.3
2015-Jan-28 18:32S 36°50' E 174°57'1 1.1
2015-Jan-28 17:27S 36°50' E 174°56'2 2.0
2015-Jan-28 16:33S 36°50' E 174°58'5 3.9
2015-Jan-28 15:23S 36°53' E 174°54'0 0.1
2015-Jan-28 14:32S 36°53' E 174°54'0 0.0
2015-Jan-28 13:32S 36°53' E 174°54'0 0.0
2015-Jan-28 12:29S 36°53' E 174°54'0 0.1
2015-Jan-28 11:32S 36°53' E 174°54'0 0.0
2015-Jan-28 10:23S 36°53' E 174°54'0 0.0
2015-Jan-28 09:29S 36°53' E 174°54'0 0.0
2015-Jan-28 08:29S 36°53' E 174°54'0 0.0
2015-Jan-28 07:28S 36°53' E 174°54'0 0.0
2015-Jan-28 06:22S 36°53' E 174°54'2 2.1
2015-Jan-28 05:33S 36°51' E 174°53'5 4.6
2015-Jan-28 04:33S 36°50' E 174°59'5 4.5
2015-Jan-28 03:24S 36°53' E 174°54'1011.0
2015-Jan-28 02:32S 36°44' E 174°57'1 1.0
2015-Jan-28 01:33S 36°44' E 174°56'1 0.9
2015-Jan-28 00:33S 36°44' E 174°57'9 7.4
2015-Jan-27 23:18S 36°53' E 174°54'0 0.1
2015-Jan-27 22:31S 36°53' E 174°54'0 0.0
2015-Jan-27 21:31S 36°53' E 174°54'0 0.0
2015-Jan-27 20:31S 36°53' E 174°54'4 3.2
2015-Jan-27 19:23S 36°50' E 174°56'1 1.0
2015-Jan-27 18:32S 36°50' E 174°56'1 0.5
2015-Jan-27 17:25S 36°50' E 174°56'2 2.1
2015-Jan-27 16:33S 36°50' E 174°58'4 3.9
2015-Jan-27 15:33S 36°51' E 174°54'4 0.4
2015-Jan-27 06:32S 36°50' E 174°49'4 3.7
2015-Jan-27 05:33S 36°51' E 174°54'4 4.5
2015-Jan-27 04:33S 36°50' E 174°59'5 0.8
2015-Jan-26 22:23S 36°53' E 174°54'4 0.6
2015-Jan-26 16:30S 36°50' E 174°57'3 0.3
2015-Jan-26 06:23S 36°52' E 174°54'3 1.0
2015-Jan-26 03:29S 36°49' E 174°52'1 0.2
2015-Jan-26 00:30S 36°49' E 174°53'1 0.9
2015-Jan-25 23:07S 36°49' E 174°52'7 4.4
2015-Jan-25 21:27S 36°49' E 175°01'7 0.5
2015-Jan-25 05:07S 36°49' E 174°51'1 0.7
2015-Jan-25 03:31S 36°49' E 174°53'6 6.2
2015-Jan-25 02:33S 36°50' E 174°46'5 2.5
2015-Jan-25 00:28S 36°49' E 174°52'5 1.5
2015-Jan-24 21:27S 36°50' E 174°58'4 0.2
2015-Jan-24 03:27S 36°49' E 174°52'0 0.1
2015-Jan-24 00:29S 36°49' E 174°52'4 1.2
2015-Jan-23 21:13S 36°50' E 174°57'1 0.1
2015-Jan-23 07:19S 36°50' E 174°58'4 1.6
2015-Jan-23 04:33S 36°50' E 174°53'2 1.2
2015-Jan-23 02:33S 36°50' E 174°56'2 1.9
2015-Jan-23 01:33S 36°51' E 174°54'3 3.2
2015-Jan-23 00:33S 36°50' E 174°57'1 0.6
2015-Jan-22 22:33S 36°50' E 174°59'5 3.5
2015-Jan-22 21:05S 36°53' E 174°54'3 1.1
2015-Jan-22 18:32S 36°50' E 174°56'1 0.7
2015-Jan-22 16:32S 36°50' E 174°55'3 3.3
2015-Jan-22 15:31S 36°53' E 174°54'0 0.0
2015-Jan-22 14:20S 36°53' E 174°54'0 0.0
2015-Jan-22 13:23S 36°53' E 174°54'0 0.0
2015-Jan-22 11:13S 36°53' E 174°54'0 0.1
2015-Jan-22 10:31S 36°53' E 174°54'0 0.0
2015-Jan-22 09:14S 36°53' E 174°54'0 0.0
2015-Jan-22 08:32S 36°53' E 174°54'0 0.0
2015-Jan-22 07:31S 36°53' E 174°54'0 0.0
2015-Jan-22 06:31S 36°53' E 174°54'1 1.4
2015-Jan-22 05:33S 36°51' E 174°54'3 3.3
2015-Jan-22 04:33S 36°50' E 174°57'4 3.2
2015-Jan-22 03:19S 36°53' E 174°54'1 1.0
2015-Jan-22 02:33S 36°52' E 174°54'2 0.7
2015-Jan-22 00:10S 36°51' E 174°53'1 1.1
2015-Jan-21 23:33S 36°51' E 174°53'7 8.2
2015-Jan-21 22:44S 36°49' E 175°01'314.1
2015-Jan-21 22:32S 36°50' E 174°58'4 3.9
2015-Jan-21 21:23S 36°53' E 174°54'0 0.0
2015-Jan-21 20:32S 36°53' E 174°54'4 4.1
2015-Jan-21 19:32S 36°50' E 174°57'3 3.1
2015-Jan-21 18:33S 36°51' E 174°54'2 1.5
2015-Jan-21 17:31S 36°50' E 174°55'2 1.7
2015-Jan-21 16:33S 36°50' E 174°57'4 4.1
2015-Jan-21 15:33S 36°50' E 174°52'2 0.2
2015-Jan-21 06:20S 36°50' E 174°50'5 5.3
2015-Jan-21 05:22S 36°50' E 174°56'1 1.2
2015-Jan-21 04:33S 36°50' E 174°57'4 4.0
2015-Jan-21 03:32S 36°53' E 174°54'4 0.7
2015-Jan-20 22:28S 36°50' E 174°57'3 1.0
2015-Jan-20 19:33S 36°51' E 174°54'2 1.9
2015-Jan-20 18:31S 36°50' E 174°56'0 0.3
2015-Jan-20 17:29S 36°50' E 174°55'1 1.4
2015-Jan-20 16:29S 36°50' E 174°57'3 2.9
2015-Jan-20 15:24S 36°52' E 174°54'1 0.1
2015-Jan-20 05:33S 36°51' E 174°54'3 3.0
2015-Jan-20 04:33S 36°50' E 174°57'0 0.1
2015-Jan-20 02:32S 36°50' E 174°57'4 3.6
2015-Jan-20 01:33S 36°53' E 174°54'0 0.0
2015-Jan-20 00:28S 36°53' E 174°54'3 3.0
2015-Jan-19 23:27S 36°50' E 174°55'3 3.2
2015-Jan-19 22:34S 36°50' E 174°59'5 3.4
2015-Jan-19 21:04S 36°53' E 174°54'0 0.0
2015-Jan-19 20:13S 36°53' E 174°54'2 2.6
2015-Jan-19 19:33S 36°51' E 174°54'  

Dump ship's entire track history